Time;durP1;ratioP1;P1;durP2;ratioP2;P2;SDS_P1;SDS_P2;PMS_P1;PMS_P2;Temp;Humidity;BMP_temperature;BMP_pressure;BME280_temperature;BME280_humidity;BME280_pressure;Samples;Min_cycle;Max_cycle;Signal;HPM_P1;HPM_P2
2020/12/09 00:01:29;;;;;;;10.38;7.25;;;5.80;79.90;;;;;;4971307;28;20463;-76
2020/12/09 00:03:56;;;;;;;10.80;7.40;;;5.70;80.00;;;;;;4991534;28;20031;-75
2020/12/09 00:06:24;;;;;;;10.48;7.65;;;5.70;79.90;;;;;;4987050;28;20102;-75
2020/12/09 00:08:50;;;;;;;10.00;6.57;;;5.80;80.00;;;;;;4989890;28;20030;-75
2020/12/09 00:11:16;;;;;;;9.48;7.03;;;5.70;79.90;;;;;;4993637;28;20030;-77
2020/12/09 00:13:43;;;;;;;10.23;7.68;;;5.70;79.90;;;;;;4994408;28;20430;-75
2020/12/09 00:16:09;;;;;;;10.73;7.75;;;5.70;79.90;;;;;;4982025;28;20030;-76
2020/12/09 00:18:38;;;;;;;10.73;7.15;;;5.70;79.90;;;;;;4991005;28;20058;-76
2020/12/09 00:21:07;;;;;;;10.25;7.22;;;5.70;80.00;;;;;;5000136;28;20077;-77
2020/12/09 00:23:33;;;;;;;10.32;7.47;;;5.70;80.00;;;;;;4970794;28;20113;-75
2020/12/09 00:25:59;;;;;;;9.40;6.55;;;5.70;80.00;;;;;;5001239;28;20490;-77
2020/12/09 00:28:24;;;;;;;9.10;7.03;;;5.70;79.90;;;;;;4989502;28;20113;-75
2020/12/09 00:30:52;;;;;;;9.52;6.30;;;5.70;80.00;;;;;;5005771;28;20034;-75
2020/12/09 00:33:17;;;;;;;10.82;7.47;;;5.70;79.90;;;;;;4994194;28;20157;-75
2020/12/09 00:35:43;;;;;;;10.48;7.45;;;5.60;79.90;;;;;;4987412;28;20111;-77
2020/12/09 00:38:09;;;;;;;9.95;7.18;;;5.70;79.90;;;;;;4990187;28;20033;-75
2020/12/09 00:40:35;;;;;;;9.88;7.55;;;5.70;79.90;;;;;;4981699;28;20038;-75
2020/12/09 00:43:05;;;;;;;10.30;7.43;;;5.60;79.90;;;;;;4984476;28;20113;-75
2020/12/09 00:45:31;;;;;;;9.85;7.05;;;5.60;79.90;;;;;;4979069;28;20078;-76
2020/12/09 00:47:57;;;;;;;10.20;6.90;;;5.60;79.90;;;;;;4980169;28;20045;-75
2020/12/09 00:52:59;;;;;;;9.73;6.72;;;5.60;79.90;;;;;;4968392;28;20042;-76
2020/12/09 00:55:27;;;;;;;10.05;6.88;;;5.60;79.90;;;;;;4992661;28;20030;-76
2020/12/09 00:57:53;;;;;;;9.05;6.55;;;5.60;79.90;;;;;;4990242;28;20042;-75
2020/12/09 01:00:20;;;;;;;9.20;6.72;;;5.60;79.90;;;;;;4980000;28;20042;-75
2020/12/09 01:02:51;;;;;;;9.82;6.95;;;5.60;79.90;;;;;;4989673;28;20039;-76
2020/12/09 01:05:18;;;;;;;10.77;7.25;;;5.60;79.90;;;;;;4989738;28;20502;-77
2020/12/09 01:07:46;;;;;;;10.13;7.38;;;5.60;79.90;;;;;;4955227;28;20042;-76
2020/12/09 01:10:12;;;;;;;8.88;6.63;;;5.60;79.90;;;;;;4973939;28;20039;-75
2020/12/09 01:12:39;;;;;;;9.32;6.85;;;5.60;79.90;;;;;;4969106;28;20031;-75
2020/12/09 01:15:06;;;;;;;10.10;7.30;;;5.60;79.90;;;;;;4986832;28;20076;-75
2020/12/09 01:17:32;;;;;;;9.68;6.72;;;5.60;79.90;;;;;;4991053;28;20023;-75
2020/12/09 01:19:57;;;;;;;9.13;6.78;;;5.50;79.90;;;;;;5005413;28;20054;-75
2020/12/09 01:22:23;;;;;;;10.75;7.60;;;5.50;79.90;;;;;;4966419;28;20035;-75
2020/12/09 01:24:51;;;;;;;10.05;7.05;;;5.50;79.90;;;;;;4981455;28;20059;-75
2020/12/09 01:27:22;;;;;;;9.70;6.65;;;5.50;79.90;;;;;;4965357;28;20419;-76
2020/12/09 01:29:48;;;;;;;10.90;7.45;;;5.50;79.90;;;;;;4975470;28;20121;-75
2020/12/09 01:32:14;;;;;;;8.90;6.78;;;5.50;79.90;;;;;;4988388;28;20124;-76
2020/12/09 01:34:41;;;;;;;9.15;6.82;;;5.50;79.90;;;;;;4988732;28;20039;-75
2020/12/09 01:37:07;;;;;;;10.43;7.85;;;5.50;79.90;;;;;;4989089;28;20035;-75
2020/12/09 01:39:33;;;;;;;10.02;6.55;;;5.50;79.90;;;;;;4965514;28;20094;-77
2020/12/09 01:41:58;;;;;;;8.90;6.30;;;5.50;79.90;;;;;;4965450;28;20427;-77
2020/12/09 01:44:24;;;;;;;10.05;7.07;;;5.50;79.90;;;;;;4984027;28;20031;-75
2020/12/09 01:46:52;;;;;;;9.63;6.47;;;5.40;79.90;;;;;;4985869;28;20056;-75
2020/12/09 01:49:21;;;;;;;9.45;7.15;;;5.40;79.90;;;;;;4974278;28;20073;-75
2020/12/09 01:51:47;;;;;;;9.98;6.80;;;5.40;79.90;;;;;;4988878;28;20030;-75
2020/12/09 01:54:12;;;;;;;10.20;7.20;;;5.40;79.90;;;;;;4946562;28;20027;-75
2020/12/09 01:56:38;;;;;;;9.65;7.13;;;5.40;79.90;;;;;;4991940;28;20172;-75
2020/12/09 01:59:04;;;;;;;8.88;6.53;;;5.40;79.90;;;;;;4975843;28;20030;-74
2020/12/09 02:01:32;;;;;;;8.93;6.30;;;5.40;80.50;;;;;;4975917;28;20029;-75
2020/12/09 02:03:57;;;;;;;9.95;7.32;;;5.40;79.90;;;;;;4985353;28;20030;-75
2020/12/09 02:06:23;;;;;;;9.20;6.78;;;5.30;79.80;;;;;;4972695;28;20062;-75
2020/12/09 02:08:49;;;;;;;10.18;7.35;;;5.30;79.80;;;;;;4989693;28;20034;-75
2020/12/09 02:11:15;;;;;;;9.63;6.72;;;5.30;79.80;;;;;;4991303;28;20031;-75
2020/12/09 02:13:43;;;;;;;11.40;7.03;;;5.30;79.80;;;;;;4989111;28;20034;-77
2020/12/09 02:16:09;;;;;;;9.75;6.82;;;5.30;79.90;;;;;;4981299;28;20019;-75
2020/12/09 02:18:36;;;;;;;9.80;6.90;;;5.30;79.90;;;;;;4959606;28;20046;-75
2020/12/09 02:21:02;;;;;;;10.13;6.80;;;5.30;79.80;;;;;;4972769;28;20162;-75
2020/12/09 02:23:27;;;;;;;8.02;5.80;;;5.30;79.80;;;;;;4972657;28;20387;-75
2020/12/09 02:25:55;;;;;;;10.48;7.40;;;5.30;79.80;;;;;;4989137;28;20467;-75
2020/12/09 02:28:20;;;;;;;8.88;6.55;;;5.20;79.80;;;;;;4985574;28;20038;-78
2020/12/09 02:30:46;;;;;;;9.88;6.93;;;5.20;79.80;;;;;;4989078;28;20038;-76
2020/12/09 02:33:12;;;;;;;9.15;6.65;;;5.20;79.80;;;;;;4976995;28;20019;-75
2020/12/09 02:35:37;;;;;;;10.15;7.07;;;5.20;79.80;;;;;;4952684;28;20069;-75
2020/12/09 02:38:03;;;;;;;9.05;6.55;;;5.20;79.80;;;;;;4993927;28;20073;-76
2020/12/09 02:40:29;;;;;;;9.90;7.30;;;5.20;79.80;;;;;;4988551;28;20069;-75
2020/12/09 02:42:55;;;;;;;9.02;6.38;;;5.20;79.80;;;;;;5012489;28;20382;-76
2020/12/09 02:45:21;;;;;;;9.68;6.65;;;5.20;79.80;;;;;;4957500;28;20395;-75
2020/12/09 02:47:47;;;;;;;8.82;6.75;;;5.10;79.80;;;;;;4987015;28;20038;-75
2020/12/09 02:50:12;;;;;;;9.15;6.53;;;5.20;79.80;;;;;;4979256;28;20038;-75
2020/12/09 02:52:40;;;;;;;9.88;6.80;;;5.10;79.70;;;;;;4990531;28;20035;-76
2020/12/09 02:55:05;;;;;;;10.50;7.35;;;5.10;79.70;;;;;;4978298;28;20729;-76
2020/12/09 02:57:33;;;;;;;9.95;6.68;;;5.10;79.80;;;;;;4985402;28;20030;-75
2020/12/09 02:59:58;;;;;;;8.65;6.22;;;5.10;79.80;;;;;;4992791;28;20084;-77
2020/12/09 03:02:28;;;;;;;9.98;7.20;;;5.10;79.80;;;;;;4984495;28;20035;-75
2020/12/09 03:04:54;;;;;;;10.00;6.85;;;5.10;79.80;;;;;;4980135;28;20058;-78
2020/12/09 03:07:21;;;;;;;9.80;6.93;;;5.10;79.80;;;;;;4966528;28;20034;-75
2020/12/09 03:09:46;;;;;;;9.18;7.07;;;5.10;79.80;;;;;;4982166;28;20034;-75
2020/12/09 03:12:13;;;;;;;10.35;6.95;;;5.10;79.90;;;;;;4978332;28;20383;-75
2020/12/09 03:14:38;;;;;;;10.48;7.10;;;5.10;79.90;;;;;;4993532;28;20058;-75
2020/12/09 03:17:07;;;;;;;8.45;6.22;;;5.10;79.90;;;;;;4991948;28;20031;-76
2020/12/09 03:19:33;;;;;;;9.80;6.78;;;5.10;79.90;;;;;;4975776;28;20042;-75
2020/12/09 03:21:58;;;;;;;10.30;6.90;;;5.10;79.90;;;;;;4989090;28;20126;-75
2020/12/09 03:24:24;;;;;;;10.73;7.18;;;5.00;79.80;;;;;;4998241;28;20065;-75
2020/12/09 03:26:50;;;;;;;11.25;7.35;;;5.00;79.80;;;;;;5012665;28;20366;-76
2020/12/09 03:29:16;;;;;;;9.85;6.70;;;5.00;79.80;;;;;;4977163;28;20029;-75
2020/12/09 03:31:44;;;;;;;9.73;7.03;;;5.00;79.90;;;;;;4982561;28;20097;-75
2020/12/09 03:34:09;;;;;;;9.40;6.70;;;5.00;79.80;;;;;;4993642;28;20479;-77
2020/12/09 03:36:40;;;;;;;9.82;6.60;;;5.00;79.80;;;;;;4967511;28;20487;-75
2020/12/09 03:39:05;;;;;;;8.70;6.47;;;5.00;79.80;;;;;;4976054;28;20070;-75
2020/12/09 03:41:31;;;;;;;10.38;6.72;;;5.00;79.80;;;;;;4981383;28;20034;-75
2020/12/09 03:43:58;;;;;;;10.05;6.82;;;5.00;79.90;;;;;;4987197;28;20035;-77
2020/12/09 03:46:24;;;;;;;10.48;6.88;;;5.00;79.90;;;;;;4983062;28;20031;-78
2020/12/09 03:48:50;;;;;;;9.88;6.47;;;5.00;79.90;;;;;;4967661;28;20085;-75
2020/12/09 03:51:15;;;;;;;10.25;6.90;;;5.00;79.90;;;;;;4992346;28;20467;-75
2020/12/09 03:53:41;;;;;;;8.82;6.22;;;5.00;79.90;;;;;;4993568;28;20109;-75
2020/12/09 03:56:07;;;;;;;9.68;7.03;;;5.10;80.00;;;;;;4986692;28;20030;-76
2020/12/09 03:58:33;;;;;;;10.25;6.85;;;5.00;79.90;;;;;;4997166;28;20041;-75
2020/12/09 04:00:58;;;;;;;9.85;6.38;;;5.00;79.90;;;;;;4982754;28;20043;-74
2020/12/09 04:03:27;;;;;;;9.43;6.72;;;5.00;79.90;;;;;;4978446;28;20058;-75
2020/12/09 04:05:56;;;;;;;10.30;6.97;;;5.00;80.00;;;;;;4974391;28;20078;-76
2020/12/09 04:08:22;;;;;;;10.63;7.32;;;5.00;80.00;;;;;;4974460;28;20038;-75
2020/12/09 04:10:49;;;;;;;9.05;6.57;;;5.00;80.00;;;;;;4987166;28;20034;-75
2020/12/09 04:13:16;;;;;;;10.30;6.70;;;5.00;80.00;;;;;;4959547;28;20174;-76
2020/12/09 04:15:41;;;;;;;9.40;6.63;;;5.00;80.00;;;;;;4997812;28;20485;-75
2020/12/09 04:18:08;;;;;;;9.38;6.68;;;5.00;80.00;;;;;;4998436;28;20414;-75
2020/12/09 04:20:34;;;;;;;10.35;6.95;;;5.00;80.00;;;;;;4999947;28;20026;-76
2020/12/09 04:23:03;;;;;;;10.23;6.68;;;5.00;80.00;;;;;;4964863;28;20155;-75
2020/12/09 04:25:29;;;;;;;9.57;6.65;;;5.00;80.00;;;;;;4968281;28;20096;-76
2020/12/09 04:27:55;;;;;;;10.52;7.00;;;5.00;80.00;;;;;;4955616;28;20474;-75
2020/12/09 04:30:20;;;;;;;12.73;8.30;;;5.00;80.00;;;;;;4989421;28;20035;-76
2020/12/09 04:32:46;;;;;;;11.38;7.75;;;5.00;80.00;;;;;;4988074;28;20077;-77
2020/12/09 04:35:12;;;;;;;11.45;7.40;;;5.00;80.00;;;;;;4964918;28;20054;-76
2020/12/09 04:37:39;;;;;;;11.77;7.30;;;5.00;80.00;;;;;;4971473;28;20042;-75
2020/12/09 04:40:05;;;;;;;12.20;8.20;;;5.10;80.10;;;;;;4985969;28;20375;-75
2020/12/09 04:42:33;;;;;;;9.82;6.57;;;5.00;80.00;;;;;;4976312;28;20027;-75
2020/12/09 04:44:59;;;;;;;11.27;7.32;;;5.10;80.10;;;;;;4960172;28;20027;-75
2020/12/09 04:47:28;;;;;;;10.25;6.90;;;5.00;80.00;;;;;;4969924;28;20067;-77
2020/12/09 04:50:14;;;;;;;12.40;8.20;;;5.10;80.10;;;;;;4979336;28;20031;-75
2020/12/09 04:53:11;;;;;;;11.45;7.78;;;5.00;80.10;;;;;;4979813;28;20026;-76
2020/12/09 04:55:50;;;;;;;11.43;7.70;;;5.10;80.10;;;;;;4993177;28;20132;-76
2020/12/09 04:58:36;;;;;;;10.77;7.30;;;5.10;80.10;;;;;;4992934;28;20037;-76
2020/12/09 05:01:13;;;;;;;12.38;8.23;;;5.10;80.10;;;;;;4989613;28;20022;-75
2020/12/09 05:03:47;;;;;;;11.95;7.85;;;5.10;80.10;;;;;;4967843;28;20038;-76
2020/12/09 05:06:16;;;;;;;11.93;8.25;;;5.10;80.10;;;;;;4985159;28;20119;-75
2020/12/09 05:08:53;;;;;;;12.38;8.35;;;5.10;80.20;;;;;;4980619;28;20062;-75
2020/12/09 05:11:23;;;;;;;11.02;7.45;;;5.10;80.20;;;;;;4949380;28;20101;-75
2020/12/09 05:13:53;;;;;;;13.52;9.07;;;5.10;80.20;;;;;;4990569;28;20046;-75
2020/12/09 05:16:21;;;;;;;12.93;8.02;;;5.10;80.20;;;;;;4983147;28;20034;-75
2020/12/09 05:18:47;;;;;;;13.80;8.50;;;5.10;80.20;;;;;;4982909;28;20528;-75
2020/12/09 05:21:18;;;;;;;12.85;8.43;;;5.10;80.20;;;;;;4969225;28;20034;-76
2020/12/09 05:23:48;;;;;;;12.65;8.60;;;5.10;80.20;;;;;;4965577;28;20505;-74
2020/12/09 05:26:40;;;;;;;14.00;8.93;;;5.10;80.20;;;;;;4961302;28;20535;-75
2020/12/09 05:29:18;;;;;;;13.00;8.13;;;5.10;80.20;;;;;;4960826;28;20038;-75
2020/12/09 05:32:01;;;;;;;13.07;8.15;;;5.10;80.20;;;;;;4992141;28;20472;-78
2020/12/09 05:34:32;;;;;;;12.82;8.82;;;5.10;80.20;;;;;;4973523;28;20027;-75
2020/12/09 05:37:08;;;;;;;13.85;8.90;;;5.10;80.20;;;;;;4965065;28;20479;-74
2020/12/09 05:39:47;;;;;;;12.38;8.10;;;5.10;80.20;;;;;;4986882;28;20038;-75
2020/12/09 05:42:17;;;;;;;12.40;8.32;;;5.10;80.20;;;;;;4979439;28;20041;-75
2020/12/09 05:44:44;;;;;;;13.68;9.00;;;5.10;80.20;;;;;;5006744;28;20518;-76
2020/12/09 05:47:10;;;;;;;13.98;8.98;;;5.10;80.20;;;;;;4964986;28;20044;-75
2020/12/09 05:49:39;;;;;;;14.10;8.45;;;5.10;80.20;;;;;;4992229;28;20038;-75
2020/12/09 05:52:19;;;;;;;15.55;9.70;;;5.10;80.20;;;;;;4993976;28;20386;-77
2020/12/09 05:54:46;;;;;;;13.85;9.32;;;5.10;80.30;;;;;;4996328;28;20027;-75
2020/12/09 05:57:17;;;;;;;14.45;9.73;;;5.20;80.30;;;;;;4974042;28;20125;-76
2020/12/09 05:59:44;;;;;;;13.57;9.13;;;5.20;80.30;;;;;;4997292;28;20050;-76
2020/12/09 06:02:18;;;;;;;14.07;9.93;;;5.20;80.30;;;;;;4995659;28;20493;-75
2020/12/09 06:04:45;;;;;;;15.18;9.38;;;5.20;80.30;;;;;;4989018;28;20031;-76
2020/12/09 06:07:11;;;;;;;12.35;8.35;;;5.20;80.30;;;;;;4984554;28;20081;-75
2020/12/09 06:09:38;;;;;;;13.90;9.10;;;5.20;80.20;;;;;;4972313;28;20081;-75
2020/12/09 06:12:04;;;;;;;16.70;9.63;;;5.20;80.20;;;;;;4980923;28;20034;-75
2020/12/09 06:14:30;;;;;;;13.98;9.50;;;5.20;80.20;;;;;;4994650;28;20053;-78
2020/12/09 06:16:56;;;;;;;14.80;9.77;;;5.20;80.30;;;;;;4976913;28;20027;-75
2020/12/09 06:19:23;;;;;;;14.25;9.10;;;5.20;80.20;;;;;;4976104;28;20027;-75
2020/12/09 06:21:57;;;;;;;14.60;9.60;;;5.20;80.20;;;;;;4988561;28;20524;-75
2020/12/09 06:24:23;;;;;;;15.80;10.05;;;5.20;80.30;;;;;;4960858;28;20034;-75
2020/12/09 06:26:52;;;;;;;15.30;9.45;;;5.20;80.20;;;;;;4987666;28;20486;-75
2020/12/09 06:29:22;;;;;;;14.77;9.52;;;5.20;80.20;;;;;;4975788;28;20042;-75
2020/12/09 06:32:14;;;;;;;15.98;9.93;;;5.20;80.20;;;;;;4982137;28;20066;-75
2020/12/09 06:34:40;;;;;;;15.02;9.77;;;5.20;80.30;;;;;;4966218;28;20050;-75
2020/12/09 06:37:10;;;;;;;15.20;9.60;;;5.20;80.20;;;;;;4987581;28;20449;-75
2020/12/09 06:39:36;;;;;;;15.05;9.50;;;5.30;80.30;;;;;;4974006;28;20042;-74
2020/12/09 06:42:02;;;;;;;14.88;9.40;;;5.30;80.30;;;;;;4976369;28;20030;-75
2020/12/09 06:44:29;;;;;;;15.95;9.60;;;5.30;80.30;;;;;;4985637;28;20573;-75
2020/12/09 06:47:00;;;;;;;16.67;10.70;;;5.30;80.30;;;;;;4986305;28;20031;-75
2020/12/09 06:49:32;;;;;;;16.02;9.70;;;5.30;80.30;;;;;;4967219;28;20082;-75
2020/12/09 06:52:10;;;;;;;16.65;11.05;;;5.30;80.30;;;;;;4995219;28;20034;-75
2020/12/09 06:54:38;;;;;;;15.70;10.32;;;5.30;80.30;;;;;;4992728;28;20452;-75
2020/12/09 06:57:24;;;;;;;15.45;9.75;;;5.30;80.30;;;;;;4987652;28;20090;-77
2020/12/09 06:59:52;;;;;;;15.50;9.68;;;5.30;80.40;;;;;;4987019;28;20038;-77
2020/12/09 07:02:29;;;;;;;15.27;10.13;;;5.30;80.20;;;;;;4979571;28;20035;-75
2020/12/09 07:04:54;;;;;;;16.80;10.27;;;5.30;80.30;;;;;;4972310;28;20499;-76
2020/12/09 07:07:49;;;;;;;17.38;10.95;;;5.20;80.20;;;;;;4974764;28;20060;-75
2020/12/09 07:10:20;;;;;;;17.27;10.53;;;5.30;80.30;;;;;;4979122;28;20035;-75
2020/12/09 07:12:47;;;;;;;17.88;10.50;;;5.30;80.30;;;;;;4978066;28;20293;-75
2020/12/09 07:15:13;;;;;;;17.02;10.73;;;5.20;80.20;;;;;;4946937;28;20451;-75
2020/12/09 07:17:39;;;;;;;18.30;10.80;;;5.30;80.30;;;;;;4963657;28;20035;-75
2020/12/09 07:20:06;;;;;;;18.42;10.95;;;5.30;80.30;;;;;;4983885;28;20027;-75
2020/12/09 07:22:32;;;;;;;16.20;10.18;;;5.30;80.30;;;;;;4990016;28;20089;-76
2020/12/09 07:24:58;;;;;;;17.58;11.18;;;5.30;80.30;;;;;;4967883;28;20030;-76
2020/12/09 07:27:25;;;;;;;16.35;10.35;;;5.30;80.30;;;;;;4986524;28;20037;-76
2020/12/09 07:29:55;;;;;;;16.15;10.38;;;5.30;80.30;;;;;;4970091;28;20375;-75
2020/12/09 07:32:23;;;;;;;18.50;10.93;;;5.30;80.30;;;;;;4960188;28;20460;-76
2020/12/09 07:34:55;;;;;;;16.83;10.27;;;5.30;80.30;;;;;;4973715;28;20086;-75
2020/12/09 07:37:23;;;;;;;17.73;11.07;;;5.40;80.40;;;;;;5001136;28;20066;-75
2020/12/09 07:39:51;;;;;;;16.02;9.82;;;5.30;80.30;;;;;;4959694;28;20066;-75
2020/12/09 07:42:22;;;;;;;16.77;9.95;;;5.30;80.30;;;;;;4985545;28;20033;-75
2020/12/09 07:44:49;;;;;;;15.48;9.82;;;5.30;80.30;;;;;;4966755;28;20049;-75
2020/12/09 07:47:27;;;;;;;17.13;10.38;;;5.40;80.30;;;;;;4972059;28;20027;-75
2020/12/09 07:49:56;;;;;;;15.82;9.90;;;5.30;80.30;;;;;;4986275;28;20395;-75
2020/12/09 07:52:25;;;;;;;15.95;9.90;;;5.40;80.30;;;;;;4982885;28;20065;-76
2020/12/09 07:54:53;;;;;;;17.17;9.90;;;5.30;80.30;;;;;;5002051;28;20026;-75
2020/12/09 07:57:19;;;;;;;15.32;9.65;;;5.30;80.20;;;;;;4977314;28;20037;-77
2020/12/09 07:59:44;;;;;;;15.88;8.85;;;5.40;80.30;;;;;;4967393;28;20043;-80
2020/12/09 08:02:21;;;;;;;15.05;9.02;;;5.30;80.30;;;;;;4975155;28;20054;-75
2020/12/09 08:04:48;;;;;;;15.75;10.13;;;5.30;80.30;;;;;;4987456;28;20034;-75
2020/12/09 08:07:23;;;;;;;15.50;9.68;;;5.30;80.30;;;;;;4985640;28;20053;-75
2020/12/09 08:10:11;;;;;;;16.15;9.77;;;5.30;80.30;;;;;;5007756;28;20037;-75
2020/12/09 08:12:39;;;;;;;15.25;9.57;;;5.40;80.40;;;;;;4984124;28;20034;-76
2020/12/09 08:15:06;;;;;;;15.68;9.73;;;5.40;80.30;;;;;;4989872;28;20018;-75
2020/12/09 08:17:33;;;;;;;16.70;9.52;;;5.30;80.30;;;;;;4986384;28;20111;-76
2020/12/09 08:20:05;;;;;;;16.55;10.13;;;5.40;80.30;;;;;;4974078;28;20038;-75
2020/12/09 08:22:31;;;;;;;16.27;9.77;;;5.30;80.30;;;;;;4993651;28;20030;-75
2020/12/09 08:25:08;;;;;;;17.17;9.70;;;5.30;80.30;;;;;;4988277;28;20037;-75
2020/12/09 08:27:45;;;;;;;15.57;9.85;;;5.30;80.30;;;;;;4994826;28;20018;-77
2020/12/09 08:30:19;;;;;;;16.73;10.25;;;5.30;80.30;;;;;;4982083;28;20157;-75
2020/12/09 08:33:06;;;;;;;14.85;9.70;;;5.30;80.30;;;;;;4980717;28;20061;-74
2020/12/09 08:35:44;;;;;;;15.98;9.40;;;5.30;80.40;;;;;;4984163;28;20019;-75
2020/12/09 08:38:20;;;;;;;15.45;9.45;;;5.30;80.30;;;;;;4991013;28;20470;-75
2020/12/09 08:40:52;;;;;;;16.50;10.38;;;5.30;80.30;;;;;;4993817;28;20088;-77
2020/12/09 08:43:19;;;;;;;15.10;9.25;;;5.30;80.30;;;;;;4984640;28;20042;-75
2020/12/09 08:45:46;;;;;;;17.23;10.45;;;5.30;80.30;;;;;;4977107;28;20062;-76
2020/12/09 08:48:11;;;;;;;14.63;9.77;;;5.30;80.30;;;;;;4995968;28;20045;-76
2020/12/09 08:50:37;;;;;;;17.10;11.18;;;5.30;80.30;;;;;;4978565;28;20026;-79
2020/12/09 08:53:03;;;;;;;16.98;10.23;;;5.30;80.30;;;;;;4974458;28;20064;-75
2020/12/09 08:55:29;;;;;;;17.50;9.98;;;5.30;80.30;;;;;;4998340;28;20038;-76
2020/12/09 08:57:54;;;;;;;15.55;9.20;;;5.30;80.30;;;;;;4990076;28;20449;-75
2020/12/09 09:00:20;;;;;;;18.02;10.82;;;5.30;80.30;;;;;;4984349;28;20118;-76
2020/12/09 09:02:47;;;;;;;15.98;10.02;;;5.30;80.30;;;;;;4991904;28;20384;-76
2020/12/09 09:05:12;;;;;;;18.75;11.55;;;5.30;80.30;;;;;;4979892;28;20039;-73
2020/12/09 09:07:38;;;;;;;16.90;10.43;;;5.30;80.30;;;;;;4982202;28;20069;-77
2020/12/09 09:10:04;;;;;;;16.60;10.18;;;5.30;80.30;;;;;;4968451;28;20399;-74
2020/12/09 09:12:30;;;;;;;17.30;10.45;;;5.30;80.30;;;;;;4986539;28;20041;-77
2020/12/09 09:14:56;;;;;;;16.77;10.40;;;5.30;80.30;;;;;;4982601;28;20027;-75
2020/12/09 09:17:22;;;;;;;17.95;11.50;;;5.20;80.20;;;;;;4970107;28;20045;-76
2020/12/09 09:19:48;;;;;;;19.33;11.30;;;5.20;80.20;;;;;;4952444;28;20039;-77
2020/12/09 09:22:13;;;;;;;15.70;10.05;;;5.20;80.20;;;;;;5000055;28;20375;-75
2020/12/09 09:24:39;;;;;;;17.92;10.55;;;5.30;80.30;;;;;;4987156;28;20031;-81
2020/12/09 09:27:10;;;;;;;17.08;10.05;;;5.30;80.30;;;;;;4973734;28;20036;-77
2020/12/09 09:29:36;;;;;;;15.82;9.93;;;5.20;80.20;;;;;;4982619;28;20390;-75
2020/12/09 09:32:02;;;;;;;15.38;9.40;;;5.30;80.30;;;;;;4968724;28;20058;-75
2020/12/09 09:34:28;;;;;;;15.77;9.93;;;5.20;80.20;;;;;;4991032;28;20380;-74
2020/12/09 09:36:54;;;;;;;15.70;9.48;;;5.20;80.20;;;;;;5000004;28;20042;-75
2020/12/09 09:39:19;;;;;;;16.02;10.43;;;5.30;80.30;;;;;;4972827;28;20038;-77
2020/12/09 09:41:45;;;;;;;15.40;9.85;;;5.30;80.30;;;;;;4982861;28;20038;-75
2020/12/09 09:44:12;;;;;;;15.95;10.45;;;5.20;80.20;;;;;;4987902;28;20034;-76
2020/12/09 09:46:38;;;;;;;17.60;10.85;;;5.20;80.20;;;;;;4986605;28;20446;-75
2020/12/09 09:49:04;;;;;;;17.00;10.52;;;5.20;80.20;;;;;;4984857;28;20022;-74
2020/12/09 09:51:30;;;;;;;16.55;10.98;;;5.20;80.20;;;;;;4987994;28;20108;-73
2020/12/09 09:53:55;;;;;;;15.80;9.88;;;5.20;80.80;;;;;;4973173;28;20061;-74
2020/12/09 09:56:21;;;;;;;15.93;10.18;;;5.20;80.20;;;;;;4992909;28;20050;-75
2020/12/09 09:58:47;;;;;;;16.63;10.63;;;5.20;80.20;;;;;;4985627;28;20043;-75
2020/12/09 10:01:16;;;;;;;15.73;10.05;;;5.20;80.20;;;;;;5002470;28;20041;-74
2020/12/09 10:03:42;;;;;;;15.88;9.70;;;5.20;80.20;;;;;;4978847;28;20039;-76
2020/12/09 10:06:08;;;;;;;14.93;9.95;;;5.20;80.20;;;;;;4988748;28;20102;-73
2020/12/09 10:08:34;;;;;;;17.17;10.45;;;5.20;80.20;;;;;;4990131;28;20038;-74
2020/12/09 10:11:04;;;;;;;16.35;10.63;;;5.20;80.20;;;;;;4979351;28;20031;-75
2020/12/09 10:13:30;;;;;;;16.73;10.52;;;5.20;80.20;;;;;;4985676;28;20030;-75
2020/12/09 10:15:56;;;;;;;17.05;10.73;;;5.20;80.20;;;;;;4997729;28;20113;-74
2020/12/09 10:18:22;;;;;;;15.90;10.68;;;5.20;80.20;;;;;;4972710;28;20031;-75
2020/12/09 10:20:48;;;;;;;17.27;11.32;;;5.20;80.20;;;;;;4977144;28;20042;-75
2020/12/09 10:23:14;;;;;;;17.98;10.90;;;5.20;80.20;;;;;;4984574;28;20117;-75
2020/12/09 10:25:40;;;;;;;16.23;10.63;;;5.20;80.20;;;;;;4986688;28;20059;-74
2020/12/09 10:28:05;;;;;;;16.02;10.18;;;5.20;80.20;;;;;;4990947;28;20367;-75
2020/12/09 10:30:31;;;;;;;16.48;10.35;;;5.20;80.20;;;;;;4974023;28;20085;-75
2020/12/09 10:32:58;;;;;;;14.40;9.48;;;5.20;80.20;;;;;;4980988;28;20114;-77
2020/12/09 10:35:23;;;;;;;15.93;10.57;;;5.20;80.20;;;;;;4968354;28;20076;-78
2020/12/09 10:37:49;;;;;;;17.92;11.18;;;5.20;80.20;;;;;;4983091;28;20387;-77
2020/12/09 10:40:15;;;;;;;17.77;11.02;;;5.20;80.20;;;;;;4974507;28;20031;-76
2020/12/09 10:42:41;;;;;;;16.33;10.55;;;5.20;80.20;;;;;;4988642;28;20122;-75
2020/12/09 10:45:08;;;;;;;16.60;10.95;;;5.20;80.20;;;;;;4986889;28;20110;-73
2020/12/09 10:47:34;;;;;;;17.45;10.68;;;5.20;80.20;;;;;;4974849;28;20121;-74
2020/12/09 10:49:59;;;;;;;17.25;10.80;;;5.20;80.10;;;;;;4975752;28;20419;-74
2020/12/09 10:52:26;;;;;;;19.52;11.90;;;5.20;80.10;;;;;;4974944;28;20037;-76
2020/12/09 10:54:52;;;;;;;18.83;11.43;;;5.20;80.00;;;;;;4991005;28;20505;-76
2020/12/09 10:57:17;;;;;;;16.55;10.70;;;5.10;79.90;;;;;;4963752;28;20030;-77
2020/12/09 10:59:43;;;;;;;16.20;10.48;;;5.20;80.00;;;;;;4955746;28;20494;-75
2020/12/09 11:02:10;;;;;;;15.43;9.77;;;5.20;80.00;;;;;;4986907;28;20039;-75
2020/12/09 11:04:36;;;;;;;17.33;10.48;;;5.10;80.00;;;;;;4984044;28;20038;-75
2020/12/09 11:07:09;;;;;;;15.60;9.98;;;5.10;80.00;;;;;;4975753;28;20062;-75
2020/12/09 11:09:36;;;;;;;15.10;9.63;;;5.10;80.00;;;;;;4994942;28;20065;-76
2020/12/09 11:12:02;;;;;;;18.02;11.45;;;5.10;80.10;;;;;;4988657;28;20113;-75
2020/12/09 11:14:28;;;;;;;16.73;10.27;;;5.20;80.00;;;;;;4967447;28;20123;-74
2020/12/09 11:16:53;;;;;;;18.20;11.05;;;5.10;80.00;;;;;;4982718;28;20080;-75
2020/12/09 11:19:19;;;;;;;18.02;11.05;;;5.10;80.00;;;;;;4992898;28;20041;-75
2020/12/09 11:21:45;;;;;;;16.88;10.80;;;5.20;80.00;;;;;;4973398;28;20541;-79
2020/12/09 11:24:11;;;;;;;18.23;10.65;;;5.10;80.00;;;;;;4992246;28;20039;-75
2020/12/09 11:26:36;;;;;;;18.38;11.23;;;5.10;79.90;;;;;;4981705;28;20037;-75
2020/12/09 11:29:02;;;;;;;17.88;11.13;;;5.10;79.90;;;;;;4984826;28;20562;-75
2020/12/09 11:31:28;;;;;;;16.83;11.25;;;5.20;80.00;;;;;;4995353;28;20038;-74
2020/12/09 11:33:54;;;;;;;17.88;10.57;;;5.10;80.50;;;;;;5007877;28;20022;-75
2020/12/09 11:36:25;;;;;;;17.50;10.80;;;5.20;80.00;;;;;;4998898;28;20022;-75
2020/12/09 11:38:52;;;;;;;16.25;10.38;;;5.10;80.00;;;;;;4985350;28;20038;-76
2020/12/09 11:41:29;;;;;;;16.05;10.43;;;5.20;80.00;;;;;;4990084;28;20056;-75
2020/12/09 11:43:56;;;;;;;16.70;10.75;;;5.10;80.00;;;;;;4984083;28;20027;-75
2020/12/09 11:46:25;;;;;;;15.85;10.43;;;5.20;80.00;;;;;;4977101;28;20453;-75
2020/12/09 11:48:55;;;;;;;18.70;11.00;;;5.20;80.00;;;;;;4991663;28;20031;-75
2020/12/09 11:51:22;;;;;;;14.98;9.65;;;5.10;80.00;;;;;;4991450;28;20473;-75
2020/12/09 11:53:47;;;;;;;15.25;10.35;;;5.20;80.00;;;;;;4963576;28;20037;-79
2020/12/09 11:56:19;;;;;;;16.63;10.68;;;5.10;79.90;;;;;;4979516;28;20039;-76
2020/12/09 11:58:45;;;;;;;16.25;9.85;;;5.20;80.00;;;;;;4990329;28;20026;-74
2020/12/09 12:01:11;;;;;;;16.40;10.20;;;5.20;80.00;;;;;;4991887;28;20041;-74
2020/12/09 12:03:37;;;;;;;15.93;9.77;;;5.20;80.00;;;;;;4992967;28;20034;-77
2020/12/09 12:06:03;;;;;;;16.08;10.10;;;5.10;79.90;;;;;;4990152;28;20041;-75
2020/12/09 12:08:29;;;;;;;15.98;9.63;;;5.10;80.00;;;;;;4968985;28;20038;-75
2020/12/09 12:10:55;;;;;;;17.58;10.77;;;5.20;80.00;;;;;;4989238;28;20026;-74
2020/12/09 12:13:20;;;;;;;18.75;10.15;;;5.20;80.00;;;;;;4976458;28;20039;-74
2020/12/09 12:15:46;;;;;;;16.98;10.48;;;5.20;80.00;;;;;;4963066;28;20398;-76
2020/12/09 12:18:12;;;;;;;19.15;11.18;;;5.20;80.00;;;;;;4961732;28;20065;-75
2020/12/09 12:20:38;;;;;;;19.75;10.95;;;5.20;80.00;;;;;;4976716;28;20490;-76
2020/12/09 12:23:04;;;;;;;18.23;10.35;;;5.20;80.00;;;;;;4969052;28;20101;-75
2020/12/09 12:25:29;;;;;;;17.50;10.32;;;5.10;80.00;;;;;;4989905;28;20062;-78
2020/12/09 12:27:55;;;;;;;20.90;11.43;;;5.20;80.00;;;;;;4965672;28;20125;-76
2020/12/09 12:30:22;;;;;;;22.98;11.65;;;5.10;80.00;;;;;;4986127;28;20030;-75
2020/12/09 12:32:48;;;;;;;21.90;11.35;;;5.20;80.00;;;;;;4976415;28;20034;-77
2020/12/09 12:35:13;;;;;;;21.73;11.70;;;5.20;80.00;;;;;;4977127;28;20030;-75
2020/12/09 12:37:39;;;;;;;23.23;12.40;;;5.20;80.00;;;;;;4965776;28;20479;-78
2020/12/09 12:40:05;;;;;;;24.15;12.57;;;5.20;80.00;;;;;;4990058;28;20050;-75
2020/12/09 12:42:31;;;;;;;23.95;12.70;;;5.20;80.00;;;;;;4988545;28;20030;-75
2020/12/09 12:44:56;;;;;;;24.08;12.00;;;5.20;80.00;;;;;;4968198;28;20490;-76
2020/12/09 12:47:22;;;;;;;24.38;12.88;;;5.20;80.00;;;;;;4982346;28;20040;-76
2020/12/09 12:49:48;;;;;;;21.27;12.55;;;5.20;80.00;;;;;;4987520;28;20067;-76
2020/12/09 12:52:14;;;;;;;25.08;12.80;;;5.20;80.00;;;;;;5004321;28;20034;-76